Time;durP1;ratioP1;P1;durP2;ratioP2;P2;SDS_P1;SDS_P2;PMS_P1;PMS_P2;Temp;Humidity;BMP_temperature;BMP_pressure;BME280_temperature;BME280_humidity;BME280_pressure;Samples;Min_cycle;Max_cycle;Signal;HPM_P1;HPM_P2
2023/10/19 00:00:44;;;;;;;;;2.00;0.25;;;;;18.22;87.39;99066.00;6185826;23;45374;-64
2023/10/19 00:03:11;;;;;;;;;2.00;0.00;;;;;18.24;87.86;99072.09;6186857;23;45227;-65
2023/10/19 00:05:37;;;;;;;;;1.00;0.00;;;;;18.25;87.49;99071.13;6185591;23;45512;-65
2023/10/19 00:08:15;;;;;;;;;1.50;1.00;;;;;18.23;87.83;99060.44;6185889;23;46857;-65
2023/10/19 00:10:47;;;;;;;;;3.75;0.75;;;;;18.26;87.63;99062.88;6185331;23;45624;-65
2023/10/19 00:13:14;;;;;;;;;2.50;1.00;;;;;18.22;87.90;99057.88;6186041;23;45360;-65
2023/10/19 00:15:47;;;;;;;;;1.50;0.75;;;;;18.24;87.48;99064.88;6185838;23;45245;-65
2023/10/19 00:23:13;;;;;;;;;2.75;1.00;;;;;18.22;88.25;99066.00;6186206;23;45714;-65
2023/10/19 00:25:41;;;;;;;;;1.50;0.75;;;;;18.17;87.84;99066.41;6185648;23;45582;-65
2023/10/19 00:28:08;;;;;;;;;4.25;1.00;;;;;18.14;88.20;99061.28;6185906;23;46047;-65
2023/10/19 00:30:37;;;;;;;;;1.25;0.75;;;;;18.19;88.06;99060.88;6186034;23;45271;-65
2023/10/19 00:33:15;;;;;;;;;1.25;1.00;;;;;18.17;88.52;99060.16;6186030;23;45328;-65
2023/10/19 00:38:30;;;;;;;;;1.25;1.00;;;;;18.13;88.41;99055.03;6185633;23;45286;-65
2023/10/19 00:41:19;;;;;;;;;3.00;1.50;;;;;18.14;88.57;99056.75;6185634;23;45502;-65
2023/10/19 00:43:44;;;;;;;;;2.00;1.00;;;;;18.16;87.93;99059.31;6185469;23;45320;-65
2023/10/19 00:48:59;;;;;;;;;3.00;0.50;;;;;18.20;88.33;99051.78;6181727;23;45420;-65
2023/10/19 00:54:08;;;;;;;;;2.25;2.00;;;;;18.21;88.10;99046.25;6185922;23;45322;-65
2023/10/19 00:56:34;;;;;;;;;1.50;0.00;;;;;18.22;88.17;99034.44;6185928;23;45363;-65
2023/10/19 00:59:12;;;;;;;;;8.25;3.00;;;;;18.22;88.53;99029.03;6185924;23;46120;-65
2023/10/19 01:01:43;;;;;;;;;3.00;1.75;;;;;18.19;88.46;99026.59;6186137;23;45324;-65
2023/10/19 01:04:13;;;;;;;;;1.50;1.50;;;;;18.21;88.91;99026.47;6186162;23;45229;-65
2023/10/19 01:06:39;;;;;;;;;2.50;2.50;;;;;18.20;88.14;99016.66;6186483;23;45251;-65
2023/10/19 01:09:05;;;;;;;;;2.00;2.00;;;;;18.27;88.68;99025.91;6185664;23;46734;-65
2023/10/19 01:11:30;;;;;;;;;0.50;0.50;;;;;18.27;88.30;99023.22;6184973;23;45310;-65
2023/10/19 01:13:56;;;;;;;;;2.75;1.25;;;;;18.19;88.59;99004.16;6185780;23;45205;-65
2023/10/19 01:16:22;;;;;;;;;1.00;1.00;;;;;18.19;88.83;99006.84;6159493;23;45218;-65
2023/10/19 01:18:53;;;;;;;;;2.00;1.50;;;;;18.28;88.93;99022.22;6185288;23;47020;-65
2023/10/19 01:21:21;;;;;;;;;2.25;2.00;;;;;18.29;88.49;99010.41;6185821;23;45242;-65
2023/10/19 01:23:48;;;;;;;;;2.00;1.75;;;;;18.21;88.43;98991.34;6184726;23;45399;-65
2023/10/19 01:26:18;;;;;;;;;1.75;1.75;;;;;18.21;88.49;98986.81;6185578;23;45332;-65
2023/10/19 01:28:47;;;;;;;;;1.75;1.75;;;;;18.27;88.94;98985.41;6185776;23;45422;-65
2023/10/19 01:34:06;;;;;;;;;3.75;1.75;;;;;18.24;88.99;98981.16;6185411;23;45492;-65
2023/10/19 01:36:41;;;;;;;;;1.50;1.25;;;;;18.24;88.94;98974.88;6186139;23;45276;-65
2023/10/19 01:39:10;;;;;;;;;2.50;2.00;;;;;18.23;89.55;98973.19;6185792;23;45201;-65
2023/10/19 01:41:36;;;;;;;;;2.00;2.00;;;;;18.17;89.41;98971.88;6186056;23;45252;-65
2023/10/19 01:44:04;;;;;;;;;4.25;2.00;;;;;18.19;89.47;98967.19;6185832;23;45483;-65
2023/10/19 01:46:36;;;;;;;;;2.75;2.00;;;;;18.21;89.71;98964.34;6184418;23;45567;-65
2023/10/19 01:49:04;;;;;;;;;3.75;1.00;;;;;18.22;89.88;98964.22;6184745;23;47113;-65
2023/10/19 01:51:32;;;;;;;;;0.25;0.00;;;;;18.20;89.58;98949.16;6185282;23;45410;-65
2023/10/19 01:54:00;;;;;;;;;6.25;1.50;;;;;18.19;89.40;98933.94;6185404;23;45277;-65
2023/10/19 01:56:26;;;;;;;;;4.50;1.75;;;;;18.24;89.66;98940.63;6184943;23;45467;-65
2023/10/19 01:58:53;;;;;;;;;3.25;1.50;;;;;18.25;89.76;98941.47;6185705;23;45366;-65
2023/10/19 02:01:28;;;;;;;;;1.75;1.75;;;;;18.22;89.64;98929.09;6185600;23;45323;-65
2023/10/19 02:03:59;;;;;;;;;1.00;0.75;;;;;18.22;89.64;98929.09;6185400;23;45329;-65
2023/10/19 02:09:09;;;;;;;;;0.50;0.50;;;;;18.21;89.98;98932.81;6184788;23;47019;-65
2023/10/19 02:11:37;;;;;;;;;1.75;1.00;;;;;18.24;89.96;98929.84;6186068;23;45257;-65
2023/10/19 02:14:04;;;;;;;;;0.75;0.75;;;;;18.26;90.13;98918.88;6185071;23;45304;-65
2023/10/19 02:16:31;;;;;;;;;2.00;2.00;;;;;18.26;89.42;98919.72;6185163;23;45253;-65
2023/10/19 02:18:56;;;;;;;;;0.75;0.75;;;;;18.26;89.81;98916.16;6185441;23;45340;-65
2023/10/19 02:21:22;;;;;;;;;1.75;1.00;;;;;18.25;90.07;98906.38;6185481;23;45224;-65
2023/10/19 02:23:50;;;;;;;;;1.25;1.00;;;;;18.22;89.59;98899.41;6185732;23;45352;-65
2023/10/19 02:26:16;;;;;;;;;2.50;2.25;;;;;18.22;89.86;98901.25;6185467;23;45548;-65
2023/10/19 02:28:43;;;;;;;;;4.75;1.50;;;;;18.18;89.67;98898.00;6185568;23;46161;-65
2023/10/19 02:31:18;;;;;;;;;2.50;1.25;;;;;18.17;89.68;98898.97;6185559;23;45314;-65
2023/10/19 02:33:46;;;;;;;;;2.00;1.00;;;;;18.14;89.43;98894.72;6185326;23;45337;-65
2023/10/19 02:36:13;;;;;;;;;3.00;1.00;;;;;18.12;90.05;98898.56;6184905;23;45199;-65
2023/10/19 02:38:40;;;;;;;;;1.00;0.50;;;;;18.14;90.33;98901.97;6185229;23;45225;-65
2023/10/19 02:41:05;;;;;;;;;2.50;1.50;;;;;18.09;90.26;98899.72;6185353;23;45328;-65
2023/10/19 02:43:32;;;;;;;;;0.50;0.50;;;;;18.12;90.35;98899.41;6184823;23;45380;-65
2023/10/19 02:45:59;;;;;;;;;3.50;1.75;;;;;18.09;89.93;98890.75;6185453;23;45289;-65
2023/10/19 02:48:25;;;;;;;;;3.00;1.25;;;;;18.10;90.06;98895.16;6185101;23;46531;-65
2023/10/19 02:50:50;;;;;;;;;1.50;0.75;;;;;18.05;90.34;98886.63;6185562;23;45258;-65
2023/10/19 02:53:18;;;;;;;;;3.75;0.50;;;;;18.09;90.29;98888.03;6185383;23;45320;-65
2023/10/19 02:55:44;;;;;;;;;0.75;0.00;;;;;18.08;90.60;98884.50;6185353;23;45456;-65
2023/10/19 02:58:09;;;;;;;;;4.25;1.50;;;;;18.06;90.41;98891.03;6184839;23;46042;-65
2023/10/19 03:00:37;;;;;;;;;2.50;0.75;;;;;18.06;90.16;98897.28;6184983;23;45225;-65
2023/10/19 03:03:05;;;;;;;;;1.00;1.00;;;;;18.03;90.69;98894.88;6185407;23;45321;-65
2023/10/19 03:05:30;;;;;;;;;1.75;1.25;;;;;18.00;90.33;98881.66;6183705;22;45651;-65
2023/10/19 03:07:56;;;;;;;;;2.50;1.50;;;;;18.03;90.15;98884.06;6184830;23;45262;-65
2023/10/19 03:10:34;;;;;;;;;1.50;1.50;;;;;17.97;90.25;98876.53;6158058;23;48619;-65
2023/10/19 03:12:59;;;;;;;;;0.75;0.75;;;;;17.95;90.15;98873.13;6185162;23;45450;-65
2023/10/19 03:15:25;;;;;;;;;1.50;1.50;;;;;18.00;90.11;98867.31;6185065;23;45467;-65
2023/10/19 03:17:50;;;;;;;;;2.75;1.00;;;;;18.00;90.03;98862.75;6158154;23;47047;-65
2023/10/19 03:20:17;;;;;;;;;1.50;1.50;;;;;18.03;90.40;98869.72;6185426;23;45276;-65
2023/10/19 03:22:43;;;;;;;;;1.75;1.25;;;;;18.01;90.23;98869.00;6185247;23;45454;-65
2023/10/19 03:25:56;;;;;;;;;2.25;2.25;;;;;18.03;90.01;98865.19;6185373;23;45270;-65
2023/10/19 03:27:57;;;;;;;;;3.25;1.00;;;;;18.03;90.34;98865.19;6184310;22;45256;-65
2023/10/19 03:30:25;;;;;;;;;2.75;2.00;;;;;18.01;90.30;98861.78;6184965;23;45264;-65
2023/10/19 03:32:50;;;;;;;;;3.00;0.25;;;;;17.95;90.34;98862.34;6185458;23;45340;-65
2023/10/19 03:35:16;;;;;;;;;4.00;1.50;;;;;17.89;90.26;98847.56;6184310;23;45373;-65
2023/10/19 03:37:41;;;;;;;;;4.25;1.25;;;;;17.99;90.61;98869.13;6184696;23;45607;-65
2023/10/19 03:40:10;;;;;;;;;4.75;1.75;;;;;18.00;90.13;98861.91;6184073;23;45416;-65
2023/10/19 03:42:40;;;;;;;;;3.75;1.25;;;;;18.02;90.02;98863.47;6183814;23;45356;-65
2023/10/19 03:45:12;;;;;;;;;2.25;0.75;;;;;18.03;90.45;98864.34;6183836;23;45414;-65
2023/10/19 03:47:38;;;;;;;;;1.00;0.00;;;;;17.99;90.12;98855.63;6184442;23;47470;-65
2023/10/19 03:50:07;;;;;;;;;5.75;0.50;;;;;17.93;90.58;98848.13;6157611;23;45424;-65
2023/10/19 03:52:37;;;;;;;;;1.25;1.25;;;;;17.97;90.74;98844.16;6184853;23;45336;-65
2023/10/19 03:55:06;;;;;;;;;4.75;2.25;;;;;18.00;90.19;98843.88;6184387;23;45284;-65
2023/10/19 03:57:35;;;;;;;;;2.50;2.00;;;;;18.00;90.18;98846.56;6183727;23;46680;-65
2023/10/19 04:00:00;;;;;;;;;1.50;0.50;;;;;17.98;90.26;98839.63;6184778;23;45260;-65
2023/10/19 04:02:27;;;;;;;;;1.75;0.75;;;;;18.01;90.09;98840.19;6184872;23;45399;-65
2023/10/19 04:04:55;;;;;;;;;2.75;2.00;;;;;17.96;90.50;98828.97;6184618;23;45447;-65
2023/10/19 04:07:25;;;;;;;;;5.25;1.50;;;;;17.94;90.55;98828.22;6184653;23;45359;-65
2023/10/19 04:10:09;;;;;;;;;4.25;1.50;;;;;17.92;90.52;98831.06;6173462;23;45260;-65
2023/10/19 04:12:36;;;;;;;;;2.75;0.50;;;;;17.91;90.50;98818.59;6184117;23;45415;-65
2023/10/19 04:15:17;;;;;;;;;1.50;1.50;;;;;17.93;90.30;98823.84;6185026;23;45277;-65
2023/10/19 04:17:45;;;;;;;;;5.00;1.00;;;;;17.91;90.80;98825.84;6185709;23;45368;-65
2023/10/19 04:22:47;;;;;;;;;3.25;1.50;;;;;17.93;90.40;98815.75;6186241;23;45302;-65
2023/10/19 04:25:13;;;;;;;;;1.00;1.00;;;;;17.93;90.30;98807.66;6185810;23;45469;-65
2023/10/19 04:27:41;;;;;;;;;1.75;1.25;;;;;17.93;90.72;98803.09;6159241;23;47092;-65
2023/10/19 04:30:18;;;;;;;;;1.00;1.00;;;;;17.94;90.33;98793.13;6185757;23;45275;-65
2023/10/19 04:32:45;;;;;;;;;1.50;1.50;;;;;17.88;90.53;98780.25;6186011;23;45530;-65
2023/10/19 04:35:10;;;;;;;;;3.00;2.50;;;;;17.94;90.67;98791.31;6185654;23;45702;-65
2023/10/19 04:37:35;;;;;;;;;2.75;2.75;;;;;17.95;90.25;98789.47;6185459;23;46288;-65
2023/10/19 04:40:02;;;;;;;;;4.25;0.75;;;;;17.94;90.11;98785.03;6209405;22;45317;-65
2023/10/19 04:42:27;;;;;;;;;2.00;0.50;;;;;17.94;90.23;98780.50;6185757;23;45278;-65
2023/10/19 04:44:54;;;;;;;;;2.00;1.00;;;;;17.98;90.57;98774.84;6185469;23;46440;-65
2023/10/19 04:47:20;;;;;;;;;2.25;0.75;;;;;17.95;90.51;98768.69;6186066;23;46183;-65
2023/10/19 04:49:45;;;;;;;;;0.50;0.50;;;;;17.96;90.27;98772.28;6185843;23;53833;-65
2023/10/19 04:52:10;;;;;;;;;4.00;0.50;;;;;17.98;90.01;98782.94;6159013;23;53967;-65
2023/10/19 04:54:37;;;;;;;;;1.25;1.25;;;;;17.94;90.19;98763.44;6185202;23;57635;-65
2023/10/19 04:57:02;;;;;;;;;1.50;0.25;;;;;17.93;90.55;98759.91;6184817;23;46011;-65
2023/10/19 04:59:31;;;;;;;;;1.75;0.50;;;;;17.96;89.85;98761.47;6186254;23;45328;-65
2023/10/19 05:01:56;;;;;;;;;3.25;1.50;;;;;17.92;90.27;98749.25;6185559;23;45317;-65
2023/10/19 05:04:22;;;;;;;;;2.25;1.50;;;;;17.94;89.93;98748.13;6185907;23;45198;-65
2023/10/19 05:06:47;;;;;;;;;4.50;1.75;;;;;17.95;89.99;98741.72;6186180;23;45956;-65
2023/10/19 05:09:12;;;;;;;;;0.50;0.50;;;;;17.98;89.57;98732.47;6185969;23;45343;-65
2023/10/19 05:11:39;;;;;;;;;1.75;1.00;;;;;17.93;90.26;98721.28;6185854;23;48562;-65
2023/10/19 05:14:05;;;;;;;;;2.00;1.50;;;;;17.94;90.22;98745.44;6185774;23;45463;-65
2023/10/19 05:16:30;;;;;;;;;2.75;1.00;;;;;18.02;89.77;98760.03;6185966;23;45892;-65
2023/10/19 05:18:56;;;;;;;;;4.00;1.25;;;;;17.94;90.00;98744.56;6185861;23;45398;-65
2023/10/19 05:21:21;;;;;;;;;2.25;2.00;;;;;17.91;89.79;98734.06;6186345;23;45643;-65
2023/10/19 05:23:47;;;;;;;;;2.50;1.00;;;;;17.98;90.18;98734.34;6185742;23;45393;-65
2023/10/19 05:26:14;;;;;;;;;0.50;0.50;;;;;17.99;89.90;98726.06;6186187;23;45376;-65
2023/10/19 05:28:39;;;;;;;;;2.25;1.50;;;;;17.99;90.01;98730.63;6185744;23;45339;-65
2023/10/19 05:31:05;;;;;;;;;1.00;1.00;;;;;17.99;90.10;98719.81;6158140;23;52459;-65
2023/10/19 05:33:30;;;;;;;;;0.75;0.75;;;;;17.95;89.83;98706.63;6184954;23;45360;-65
2023/10/19 05:35:56;;;;;;;;;2.50;2.25;;;;;17.98;89.98;98694.69;6185738;23;45733;-65
2023/10/19 05:38:22;;;;;;;;;1.25;1.25;;;;;17.99;89.92;98690.13;6184360;23;54343;-65
2023/10/19 05:40:49;;;;;;;;;3.75;2.00;;;;;17.96;89.78;98680.50;6185341;23;45398;-65
2023/10/19 05:43:15;;;;;;;;;1.50;1.50;;;;;17.96;89.67;98685.91;6185043;23;45447;-65
2023/10/19 05:45:41;;;;;;;;;2.25;1.25;;;;;17.95;89.70;98692.28;6185030;23;45975;-65
2023/10/19 05:48:06;;;;;;;;;6.00;1.50;;;;;17.88;89.41;98675.00;6158832;23;45615;-65
2023/10/19 05:50:35;;;;;;;;;2.25;1.50;;;;;17.92;90.11;98684.47;6186110;23;45325;-65
2023/10/19 05:53:02;;;;;;;;;3.00;1.50;;;;;17.95;89.83;98686.88;6185568;23;45273;-65
2023/10/19 05:55:28;;;;;;;;;1.25;0.50;;;;;17.95;89.92;98701.22;6183816;23;45894;-65
2023/10/19 05:57:54;;;;;;;;;3.25;1.50;;;;;17.96;89.69;98699.41;6182900;23;45288;-65
2023/10/19 06:00:21;;;;;;;;;2.75;1.50;;;;;17.94;89.46;98704.94;6185916;23;45261;-68
2023/10/19 06:02:51;;;;;;;;;1.50;1.25;;;;;17.92;89.76;98706.06;6184611;23;45340;-67
2023/10/19 06:05:18;;;;;;;;;2.25;1.50;;;;;17.91;89.78;98696.28;6182357;23;47022;-67
2023/10/19 06:07:45;;;;;;;;;0.00;0.00;;;;;17.88;90.13;98689.31;6157088;23;45297;-67
2023/10/19 06:10:15;;;;;;;;;3.25;3.00;;;;;17.90;89.92;98691.88;6185589;23;45321;-67
2023/10/19 06:12:45;;;;;;;;;2.25;1.50;;;;;17.88;90.29;98666.88;6185436;23;45284;-67
2023/10/19 06:15:12;;;;;;;;;3.25;2.50;;;;;17.88;90.14;98664.19;6184487;23;45407;-67
2023/10/19 06:17:39;;;;;;;;;1.25;1.00;;;;;17.87;90.25;98666.00;6184486;23;45324;-66
2023/10/19 06:20:19;;;;;;;;;1.50;1.00;;;;;17.82;90.31;98654.78;6184881;23;45341;-66
2023/10/19 06:22:50;;;;;;;;;2.00;2.00;;;;;17.86;90.26;98660.72;6184865;23;46027;-67
2023/10/19 06:25:20;;;;;;;;;4.25;3.25;;;;;17.89;90.67;98660.47;6184163;23;45333;-67
2023/10/19 06:27:46;;;;;;;;;4.00;2.25;;;;;17.84;90.68;98646.53;6185025;23;45278;-66
2023/10/19 06:30:17;;;;;;;;;3.00;2.00;;;;;17.83;91.07;98658.34;6183908;23;45358;-69
2023/10/19 06:32:43;;;;;;;;;2.00;2.00;;;;;17.81;90.80;98658.50;6184536;23;45379;-67
2023/10/19 06:35:11;;;;;;;;;3.50;2.00;;;;;17.88;90.79;98658.78;6183878;23;45347;-66
2023/10/19 06:37:36;;;;;;;;;4.25;2.75;;;;;17.91;90.84;98655.81;6184795;23;45565;-67
2023/10/19 06:40:01;;;;;;;;;2.00;2.00;;;;;17.91;90.75;98661.19;6183819;23;45387;-68
2023/10/19 06:42:27;;;;;;;;;3.25;2.00;;;;;17.91;90.60;98674.69;6182512;23;45358;-68
2023/10/19 06:44:55;;;;;;;;;2.50;2.00;;;;;17.80;90.26;98653.25;6181017;23;57846;-67
2023/10/19 06:47:22;;;;;;;;;2.00;2.00;;;;;17.93;90.40;98667.28;6181019;23;45268;-68
2023/10/19 06:49:48;;;;;;;;;3.25;3.00;;;;;17.95;90.54;98666.13;6155790;23;45484;-67
2023/10/19 06:52:13;;;;;;;;;2.75;2.00;;;;;17.94;90.40;98663.59;6183096;23;45316;-68
2023/10/19 06:54:38;;;;;;;;;3.00;3.00;;;;;17.97;90.66;98666.00;6183582;23;45385;-67
2023/10/19 06:57:04;;;;;;;;;4.00;3.00;;;;;17.94;90.53;98664.44;6183794;23;45310;-67
2023/10/19 06:59:29;;;;;;;;;3.00;2.50;;;;;17.96;90.78;98658.91;6183659;23;54797;-67
2023/10/19 07:01:54;;;;;;;;;4.00;3.00;;;;;17.92;90.91;98654.78;6184845;23;45286;-67
2023/10/19 07:04:20;;;;;;;;;4.00;2.00;;;;;17.87;90.82;98652.53;6177993;23;58959;-66
2023/10/19 07:06:47;;;;;;;;;3.75;2.50;;;;;17.82;90.43;98644.00;6182504;23;45627;-66
2023/10/19 07:09:13;;;;;;;;;1.25;1.25;;;;;17.91;90.90;98653.94;6184297;23;45471;-66
2023/10/19 07:11:38;;;;;;;;;3.00;3.00;;;;;17.92;90.65;98657.47;6184607;23;45333;-66
2023/10/19 07:14:06;;;;;;;;;6.00;1.75;;;;;17.88;91.07;98651.53;6206910;22;47671;-66
2023/10/19 07:16:32;;;;;;;;;3.25;2.25;;;;;17.85;90.77;98641.00;6183876;23;45226;-66
2023/10/19 07:18:59;;;;;;;;;1.25;1.25;;;;;17.88;91.04;98648.84;6184132;23;47033;-66
2023/10/19 07:21:25;;;;;;;;;5.00;2.25;;;;;17.88;91.07;98648.84;6183000;23;45305;-66
2023/10/19 07:23:53;;;;;;;;;2.25;2.00;;;;;17.87;91.27;98647.13;6180413;23;45428;-66
2023/10/19 07:26:19;;;;;;;;;3.75;2.00;;;;;17.86;91.25;98650.81;6184489;23;45497;-66
2023/10/19 07:28:44;;;;;;;;;2.75;1.00;;;;;17.84;90.71;98646.53;6184867;23;45396;-66
2023/10/19 07:31:15;;;;;;;;;3.00;3.00;;;;;17.83;91.00;98631.38;6157503;23;45461;-66
2023/10/19 07:33:45;;;;;;;;;2.25;2.25;;;;;17.73;91.42;98618.75;6184406;23;46144;-66
2023/10/19 07:36:18;;;;;;;;;1.75;0.25;;;;;17.80;91.27;98631.66;6184767;23;45638;-66
2023/10/19 07:38:46;;;;;;;;;2.00;2.00;;;;;17.80;91.32;98628.97;6185290;23;45349;-66
2023/10/19 07:41:11;;;;;;;;;3.50;2.00;;;;;17.83;91.44;98620.56;6185237;23;45251;-66
2023/10/19 07:43:37;;;;;;;;;1.50;1.50;;;;;17.81;90.90;98609.06;6184675;23;46252;-66
2023/10/19 07:46:02;;;;;;;;;0.25;0.25;;;;;17.85;91.23;98605.06;6183749;23;45197;-66
2023/10/19 07:48:27;;;;;;;;;2.00;2.00;;;;;17.81;91.58;98603.66;6184747;23;45550;-66
2023/10/19 07:50:53;;;;;;;;;5.25;3.75;;;;;17.82;91.35;98610.75;6179377;23;45484;-66
2023/10/19 07:53:18;;;;;;;;;3.25;2.00;;;;;17.77;91.48;98598.56;6155613;23;46869;-66
2023/10/19 07:55:44;;;;;;;;;3.75;2.50;;;;;17.75;91.35;98600.56;6181024;23;45375;-66
2023/10/19 07:58:10;;;;;;;;;2.00;2.00;;;;;17.82;91.41;98608.06;6155363;23;45582;-66
2023/10/19 08:00:36;;;;;;;;;1.25;1.00;;;;;17.86;91.68;98615.72;6207132;22;45639;-66
2023/10/19 08:03:05;;;;;;;;;4.25;3.00;;;;;17.88;91.45;98612.91;6184803;23;46145;-66
2023/10/19 08:05:31;;;;;;;;;2.00;2.00;;;;;17.85;91.18;98614.00;6184711;23;45502;-66
2023/10/19 08:07:59;;;;;;;;;2.50;2.25;;;;;17.90;91.46;98613.59;6186015;23;45585;-66
2023/10/19 08:10:26;;;;;;;;;3.75;2.00;;;;;17.91;91.37;98610.75;6185675;23;45416;-66
2023/10/19 08:12:52;;;;;;;;;4.50;3.00;;;;;17.80;91.09;98600.13;6184375;23;46476;-66
2023/10/19 08:15:18;;;;;;;;;3.00;3.00;;;;;17.87;91.36;98611.19;6184789;23;45374;-66
2023/10/19 08:17:48;;;;;;;;;2.00;2.00;;;;;17.93;90.85;98607.91;6184606;23;45447;-66
2023/10/19 08:20:22;;;;;;;;;3.50;2.00;;;;;17.93;91.22;98597.97;6184999;23;45292;-66
2023/10/19 08:22:49;;;;;;;;;2.00;2.00;;;;;17.93;91.31;98597.97;6184633;23;46236;-66
2023/10/19 08:25:15;;;;;;;;;2.00;2.00;;;;;17.87;90.83;98592.31;6185711;23;45511;-66
2023/10/19 08:27:44;;;;;;;;;1.25;0.50;;;;;17.99;91.02;98603.75;6185181;23;45450;-66
2023/10/19 08:30:12;;;;;;;;;1.75;1.75;;;;;18.01;90.89;98593.66;6184036;23;45340;-66
2023/10/19 08:32:39;;;;;;;;;1.50;1.50;;;;;17.98;90.78;98602.06;6182841;23;46106;-66
2023/10/19 08:35:05;;;;;;;;;1.50;0.25;;;;;18.05;90.90;98603.16;6184744;23;45252;-66
2023/10/19 08:37:31;;;;;;;;;1.25;0.50;;;;;17.99;90.93;98583.00;6185349;23;45393;-66
2023/10/19 08:39:57;;;;;;;;;3.00;1.75;;;;;18.06;90.80;98597.63;6185168;23;45543;-66
2023/10/19 08:42:23;;;;;;;;;0.50;0.50;;;;;18.08;90.45;98598.31;6181719;23;45719;-65
2023/10/19 08:44:49;;;;;;;;;4.25;2.25;;;;;18.12;90.81;98594.31;6183031;23;45639;-67
2023/10/19 08:47:15;;;;;;;;;1.75;1.50;;;;;18.12;90.96;98591.59;6158266;23;45311;-66
2023/10/19 08:49:41;;;;;;;;;3.00;1.50;;;;;18.17;90.86;98590.31;6185822;23;45456;-66
2023/10/19 08:52:07;;;;;;;;;1.25;1.25;;;;;18.05;90.16;98574.31;6157832;23;46784;-66
2023/10/19 08:54:33;;;;;;;;;3.25;1.75;;;;;18.20;90.31;98592.72;6184736;23;45328;-66
2023/10/19 08:56:59;;;;;;;;;1.00;1.00;;;;;18.21;90.60;98592.56;6158344;23;45262;-66
2023/10/19 08:59:25;;;;;;;;;1.25;0.50;;;;;18.21;90.03;98589.88;6184926;23;45459;-67
2023/10/19 09:01:50;;;;;;;;;3.00;1.50;;;;;18.25;90.65;98587.72;6184774;23;45726;-67
2023/10/19 09:04:18;;;;;;;;;0.50;0.50;;;;;18.26;90.38;98589.41;6184545;23;45305;-67
2023/10/19 09:06:45;;;;;;;;;1.25;1.25;;;;;18.28;90.17;98590.13;6185702;23;45456;-66
2023/10/19 09:09:19;;;;;;;;;2.50;1.00;;;;;18.31;89.58;98587.97;6185396;23;45525;-67
2023/10/19 09:11:48;;;;;;;;;0.75;0.00;;;;;18.35;89.43;98590.34;6185161;23;45304;-66
2023/10/19 09:14:13;;;;;;;;;1.25;1.25;;;;;18.33;89.55;98587.81;6184027;23;45250;-66
2023/10/19 09:16:57;;;;;;;;;1.50;1.50;;;;;18.41;89.88;98592.44;6184809;23;45577;-66
2023/10/19 09:19:39;;;;;;;;;2.00;1.00;;;;;18.37;89.67;98582.94;6185231;23;45262;-66
2023/10/19 09:22:07;;;;;;;;;0.75;0.75;;;;;18.39;89.53;98581.78;6185371;23;46981;-66
2023/10/19 09:24:34;;;;;;;;;1.25;0.75;;;;;18.44;89.65;98575.94;6184734;23;45238;-66
2023/10/19 09:27:01;;;;;;;;;1.75;0.75;;;;;18.48;89.72;98577.34;6185644;23;45317;-66
2023/10/19 09:29:26;;;;;;;;;2.00;1.75;;;;;18.51;90.07;98566.22;6185565;23;45433;-66
2023/10/19 09:31:56;;;;;;;;;1.75;1.75;;;;;18.60;89.75;98569.84;6184595;23;46994;-66
2023/10/19 09:34:31;;;;;;;;;1.00;1.00;;;;;18.66;89.88;98563.81;6158998;23;45294;-67
2023/10/19 09:36:57;;;;;;;;;0.75;0.75;;;;;18.66;89.65;98548.47;6185824;23;45294;-66
2023/10/19 09:39:23;;;;;;;;;0.75;0.75;;;;;18.76;89.73;98553.78;6186092;23;45359;-66
2023/10/19 09:41:52;;;;;;;;;2.75;0.75;;;;;18.81;88.78;98542.50;6183559;23;47331;-66
2023/10/19 09:44:23;;;;;;;;;0.50;0.50;;;;;18.81;88.37;98529.84;6185239;23;45361;-66
2023/10/19 09:46:53;;;;;;;;;2.25;2.00;;;;;18.83;87.75;98524.31;6185626;23;45236;-67
2023/10/19 09:49:20;;;;;;;;;0.25;0.25;;;;;18.89;88.01;98526.38;6186203;23;45344;-66
2023/10/19 09:51:49;;;;;;;;;1.50;1.50;;;;;18.92;88.30;98533.34;6185289;23;46124;-66
2023/10/19 09:54:23;;;;;;;;;1.50;1.50;;;;;18.94;88.10;98548.38;6157680;23;45495;-66
2023/10/19 09:56:52;;;;;;;;;1.75;1.75;;;;;18.96;87.96;98542.81;6183226;23;45301;-66
2023/10/19 09:59:31;;;;;;;;;1.00;1.00;;;;;18.96;87.95;98532.00;6185777;23;45319;-66
2023/10/19 10:02:15;;;;;;;;;3.00;2.00;;;;;19.03;88.45;98539.34;6185043;23;46361;-66
2023/10/19 10:04:41;;;;;;;;;3.75;1.00;;;;;19.06;88.12;98538.16;6185196;23;45442;-67
2023/10/19 10:07:09;;;;;;;;;1.00;0.75;;;;;19.12;87.73;98534.00;6185546;23;45330;-66
2023/10/19 10:09:40;;;;;;;;;2.25;1.25;;;;;19.20;87.67;98540.28;6185707;23;45235;-66
2023/10/19 10:12:17;;;;;;;;;1.00;1.00;;;;;19.29;87.72;98533.06;6182699;23;45332;-67
2023/10/19 10:15:02;;;;;;;;;2.00;0.50;;;;;19.34;87.00;98529.91;6182383;23;45215;-65
2023/10/19 10:17:28;;;;;;;;;0.75;0.50;;;;;19.37;87.00;98530.44;6181720;23;45525;-66
2023/10/19 10:19:56;;;;;;;;;1.00;1.00;;;;;19.44;86.98;98525.22;6183232;23;45419;-67
2023/10/19 10:22:22;;;;;;;;;2.00;2.00;;;;;19.46;86.69;98523.19;6182858;23;45821;-67
2023/10/19 10:24:55;;;;;;;;;2.00;2.00;;;;;19.48;86.42;98513.09;6184731;23;45309;-67
2023/10/19 10:27:21;;;;;;;;;3.00;2.00;;;;;19.49;86.86;98506.66;6184956;23;45335;-67
2023/10/19 10:29:58;;;;;;;;;0.75;0.75;;;;;19.57;86.67;98514.81;6184629;23;45508;-66
2023/10/19 10:32:53;;;;;;;;;2.50;1.50;;;;;19.62;85.77;98517.88;6157869;23;47963;-66
2023/10/19 10:35:36;;;;;;;;;2.25;2.25;;;;;19.67;86.14;98509.28;6180344;23;45620;-66
2023/10/19 10:38:05;;;;;;;;;2.25;1.50;;;;;19.72;85.79;98506.09;6154334;23;45407;-66
2023/10/19 10:40:31;;;;;;;;;2.50;2.50;;;;;19.74;85.58;98498.66;6181355;23;45597;-66
2023/10/19 10:43:07;;;;;;;;;0.75;0.75;;;;;19.80;85.55;98507.00;6180820;23;46176;-66
2023/10/19 10:45:32;;;;;;;;;1.00;1.00;;;;;19.87;85.11;98509.06;6182950;23;45438;-66
2023/10/19 10:48:00;;;;;;;;;1.25;1.25;;;;;19.92;85.10;98501.28;6181788;23;45183;-66
2023/10/19 10:50:28;;;;;;;;;3.00;1.75;;;;;19.91;85.19;98481.50;6180731;23;45913;-66
2023/10/19 10:52:57;;;;;;;;;2.00;1.50;;;;;20.03;84.69;98497.41;6179152;23;45543;-66
2023/10/19 10:55:24;;;;;;;;;1.50;1.50;;;;;20.10;84.50;98493.06;6203007;22;45428;-66
2023/10/19 10:57:50;;;;;;;;;2.50;2.00;;;;;20.11;84.31;98478.47;6179289;23;45617;-66
2023/10/19 11:00:16;;;;;;;;;1.00;1.00;;;;;20.13;83.81;98461.06;6180713;23;45509;-66
2023/10/19 11:02:46;;;;;;;;;3.00;3.00;;;;;20.21;83.72;98462.91;6181193;23;45555;-66
2023/10/19 11:05:18;;;;;;;;;0.25;0.00;;;;;20.22;83.75;98461.91;6182148;23;45451;-66
2023/10/19 11:08:03;;;;;;;;;1.00;1.00;;;;;20.28;83.61;98450.41;6182537;23;45435;-66
2023/10/19 11:10:29;;;;;;;;;2.50;1.00;;;;;20.31;82.62;98457.34;6184665;23;45365;-66
2023/10/19 11:13:11;;;;;;;;;3.00;1.75;;;;;20.33;82.54;98453.47;6184787;23;46135;-66
2023/10/19 11:15:39;;;;;;;;;1.75;1.00;;;;;20.32;82.89;98451.78;6206787;22;45537;-66
2023/10/19 11:18:07;;;;;;;;;3.00;3.00;;;;;20.31;82.79;98431.13;6183832;23;45384;-66
2023/10/19 11:20:33;;;;;;;;;2.00;1.25;;;;;20.48;82.87;98447.38;6156337;23;45358;-66
2023/10/19 11:23:02;;;;;;;;;1.25;1.00;;;;;20.54;82.37;98452.94;6183651;23;45440;-66
2023/10/19 11:25:30;;;;;;;;;1.50;1.00;;;;;20.59;82.00;98447.03;6185717;23;45293;-66
2023/10/19 11:27:55;;;;;;;;;1.75;1.75;;;;;20.64;81.31;98443.84;6186347;23;45463;-66
2023/10/19 11:30:31;;;;;;;;;3.00;2.25;;;;;20.66;81.77;98450.78;6185645;23;45274;-66
2023/10/19 11:32:57;;;;;;;;;3.00;2.00;;;;;20.62;81.39;98430.44;6158456;23;46744;-66
2023/10/19 11:35:24;;;;;;;;;2.75;2.00;;;;;20.71;81.42;98447.56;6184034;23;45683;-66
2023/10/19 11:37:52;;;;;;;;;2.00;1.00;;;;;20.69;80.33;98436.88;6186364;23;45266;-68
2023/10/19 11:40:19;;;;;;;;;1.00;1.00;;;;;20.71;80.14;98434.88;6186247;23;45404;-66
2023/10/19 11:42:44;;;;;;;;;1.75;1.75;;;;;20.61;79.71;98406.22;6157220;23;46965;-66
2023/10/19 11:45:11;;;;;;;;;1.00;1.00;;;;;20.79;79.41;98423.16;6185202;23;45420;-66
2023/10/19 11:47:37;;;;;;;;;1.50;1.00;;;;;20.82;79.43;98405.72;6181300;23;45452;-66
2023/10/19 11:50:02;;;;;;;;;1.00;1.00;;;;;20.77;79.35;98413.53;6184977;23;45241;-66
2023/10/19 11:52:29;;;;;;;;;2.75;2.00;;;;;20.88;78.42;98418.56;6185313;23;45446;-66
2023/10/19 11:54:54;;;;;;;;;0.25;0.25;;;;;20.82;78.32;98395.72;6185023;23;45375;-67
2023/10/19 11:57:20;;;;;;;;;1.00;1.00;;;;;20.93;78.18;98410.75;6184170;23;45169;-66
2023/10/19 11:59:45;;;;;;;;;2.75;1.00;;;;;20.94;78.51;98414.34;6186047;23;45174;-66